Tiempo atmosférico en la estación meteorológica de Fresno De Sayago, Zamora (804 m.)



Fecha
DESCASC
Temp. máxima en grados centígrados (hora)
DESCASC
Temp. mínima en grados centígrados (hora)
DESCASC
Temp. media en grados centígrados
DESCASC
Racha de viento máxima en m/sg (hora)
DESCASC
Velocidad máxima media en intervalos de 10 minutos(hora)
DESCASC
Precipitaciones diarias en mm
DESCASC
Precipitaciones de 00:00 a 06:00 en mm
DESCASC
Precipitaciones de 06:00 a 12:00 en mm
DESCASC
Precipitaciones de 12:00 a 18:00 en mm
DESCASC
Precipitaciones de 18:00 a 24:00 en mm
DESCASC
08-08-2019 29.2 (17:40) 17.6 (00:00) 23.4 18.33 (16:40) 10.56 (16:50) 0 0 0 0 0
03-08-2019 33.3 (17:10) 14.9 (00:00) 24.1 10.28 (18:40) 5.56 (21:30) 0 0 0 0 0
09-08-2019 24.7 (17:30) 14.7 (00:00) 19.7 15.83 (10:40) 9.72 (13:00) 3.8 0 3.6 0.2 0
07-08-2019 25.9 (14:40) 14.6 (00:00) 20.3 9.72 (16:00) 5.83 (15:30) 0 0 0 0 0
06-08-2019 30.4 (16:30) 14.1 (00:00) 22.3 9.72 (17:30) 6.11 (17:50) 0 0 0 0 0
04-08-2019 31.3 (18:40) 14 (00:00) 22.6 11.11 (17:40) 7.5 (18:00) 0 0 0 0 0
15-08-2019 33.2 (18:40) 13.3 (00:00) 23.3 8.61 (12:10) 6.11 (11:20) 0 0 0 0 0
19-08-2019 26.3 (17:50) 13.1 (00:00) 19.7 10.28 (06:40) 7.78 (10:20) 0 0 0 0 0
16-08-2019 32.7 (17:50) 12.9 (00:00) 22.8 11.11 (18:00) 6.39 (17:30) 0 0 0 0 0
22-08-2019 31.6 (17:40) 12.8 (00:00) 22.2 13.33 (09:40) 8.33 (09:10) 0 0 0 0 0
24-08-2019 34.4 (17:40) 12.6 (00:00) 23.5 8.06 (17:50) 5.28 (09:30) 0 0 0 0 0
02-08-2019 34.2 (17:30) 12.5 (00:00) 23.4 8.61 (12:40) 6.39 (08:50) 0 0 0 0 0
01-08-2019 30.1 (17:40) 12.5 (00:00) 21.3 10.56 (17:00) 5.83 (17:20) 0 0 0 0 0
05-08-2019 32.3 (17:40) 12.3 (00:00) 22.3 9.17 (19:40) 5.83 (19:30) 0 0 0 0 0
18-08-2019 27.7 (18:20) 12.2 (00:00) 20 12.22 (16:50) 7.5 (16:50) 0 0 0 0 0
21-08-2019 31.7 (19:20) 12.2 (00:00) 22 11.94 (04:40) 8.06 (03:20) 0 0 0 0 0
10-08-2019 25.4 (17:50) 12.2 (00:00) 18.8 9.44 (17:00) 6.11 (19:00) 0 0 0 0 0
11-08-2019 22.5 (18:10) 12.1 (00:00) 17.3 13.61 (16:50) 9.17 (16:50) 2 2 0 0 0
20-08-2019 26.2 (17:00) 12 (00:00) 19.1 18.33 (10:40) 12.22 (09:50) 0 0 0 0 0
23-08-2019 34.8 (17:20) 11.9 (00:00) 23.3 9.72 (09:40) 7.5 (09:20) 0 0 0 0 0
26-07-2019 24.6 (17:00) 11.8 (00:00) 18.2 12.22 (17:40) 8.06 (20:10) 0 0 0 0 0
27-07-2019 24.8 (18:50) 11.4 (00:00) 18.1 11.94 (17:20) 8.33 (14:00) 0 0 0 0 0
17-08-2019 32.5 (17:30) 10.9 (00:00) 21.7 11.11 (16:50) 6.39 (19:00) 0 0 0 0 0
29-07-2019 24.3 (17:50) 10.6 (00:00) 17.4 13.89 (18:40) 8.06 (18:40) 0 0 0 0 0
31-07-2019 26.8 (17:40) 10.2 (00:00) 18.5 13.33 (09:40) 8.61 (09:00) 0 0 0 0 0
14-08-2019 31.3 (18:00) 9.3 (00:00) 20.3 9.44 (17:40) 5.83 (18:50) 0 0 0 0 0
13-08-2019 28.4 (19:20) 8.6 (00:00) 18.5 10.28 (10:00) 7.78 (10:00) 0 0 0 0 0
28-07-2019 27.9 (17:00) 8 (00:00) 17.9 9.72 (17:20) 5.28 (17:30) 0 0 0 0 0
30-07-2019 26 (18:20) 5.9 (00:00) 16 9.17 (16:50) 6.11 (10:20) 0 0 0 0 0
12-08-2019 23.6 (18:20) 4.3 (00:00) 14 12.22 (17:10) 6.67 (11:00) 0 0 0 0 0

Gráficas

Temp. máximas Temp. mínimas Temp. medias Precipitaciones Rachas de viento máximas Velocidades máximas media en intervalos de 10 minutos

Datos horarios

Fecha y hora oficial Temperatura (ºC) Velocidad del viento (km/h) Dirección del viento Racha (km/h) Dirección de racha Precipitación (mm) Presión (hPa) Tendencia (hPa) Humedad (%)
2019-08-24 23:00:00 24.2 9 Noroeste 20 Noroeste 0 -- -- 19
2019-08-24 22:00:00 26.1 6 Noroeste 10 Noroeste 0 -- -- 12
2019-08-24 21:00:00 28.6 6 Noroeste 12 Oeste 0 -- -- 8
2019-08-24 20:00:00 32.2 8 Oeste 19 Sur 0 -- -- 3
2019-08-24 19:00:00 33.5 12 Oeste 26 Oeste 0 -- -- 3
2019-08-24 18:00:00 34.1 8 Sudoeste 29 Oeste 0 -- -- 2
2019-08-24 17:00:00 32.9 13 Sudoeste 29 Oeste 0 -- -- 3
2019-08-24 16:00:00 34 11 Sudoeste 27 Sur 0 -- -- 2
2019-08-24 15:00:00 32.4 14 Oeste 28 Oeste 0 -- -- 3
2019-08-24 14:00:00 31.4 10 Sudoeste 18 Sudoeste 0 -- -- 5
2019-08-24 13:00:00 31.4 5 Sur 13 Sudoeste 0 -- -- 5
2019-08-24 12:00:00 28.2 5 Nordeste 16 Nordeste 0 -- -- 9
2019-08-24 11:00:00 23.8 12 Nordeste 22 Nordeste 0 -- -- 16
2019-08-24 10:00:00 20.9 14 Nordeste 23 Nordeste 0 -- -- 24
2019-08-24 09:00:00 18.9 12 Nordeste 15 Nordeste 0 -- -- 27
2019-08-24 08:00:00 13.8 12 Este 16 Nordeste 0 -- -- 40
2019-08-24 07:00:00 15.5 2 Oeste 13 Este 0 -- -- 32
2019-08-24 06:00:00 15.8 5 Sudeste 15 Oeste 0 -- -- 31
2019-08-24 05:00:00 18.4 12 Nordeste 15 Nordeste 0 -- -- 24
2019-08-24 04:00:00 16.7 12 Nordeste 22 Norte 0 -- -- 26
2019-08-24 03:00:00 17 4 Sur 8 Sudeste 0 -- -- 25
2019-08-24 02:00:00 17.2 4 Este 8 Oeste 0 -- -- 23
2019-08-24 01:00:00 20 8 Oeste 22 Sudoeste 0 -- -- 16
2019-08-24 00:00:00 20.9 5 Sudeste 8 Este 0 -- -- 14
2019-08-23 23:00:00 20.1 8 Este 12 Nordeste 0 -- -- 17
2019-08-23 22:00:00 24.7 11 Nordeste 17 Norte 0 -- -- 8
2019-08-23 21:00:00 29 0 Calma 15 Oeste 0 -- -- 2
2019-08-23 20:00:00 32.6 7 Sudoeste 19 Oeste 0 -- -- --
2019-08-23 19:00:00 32.8 14 Oeste 28 Oeste 0 -- -- --
2019-08-23 18:00:00 33.1 12 Oeste 25 Oeste 0 -- -- --
2019-08-23 17:00:00 33 8 Nordeste 24 Nordeste 0 -- -- --
2019-08-23 16:00:00 32.8 8 Noroeste 22 Nordeste 0 -- -- --
2019-08-23 15:00:00 32.7 8 Este 19 Nordeste 0 -- -- --
2019-08-23 14:00:00 30.3 10 Nordeste 20 Este 0 -- -- --
2019-08-23 13:00:00 28.5 8 Norte 16 Este 0 -- -- 3
2019-08-23 12:00:00 25.9 9 Este 21 Este 0 -- -- 9
2019-08-23 11:00:00 21.6 16 Nordeste 31 Nordeste 0 -- -- 19
2019-08-23 10:00:00 18 25 Nordeste 35 Nordeste 0 -- -- 26
2019-08-23 09:00:00 14.9 25 Nordeste 31 Nordeste 0 -- -- 33
2019-08-23 08:00:00 12.5 21 Nordeste 27 Nordeste 0 -- -- 37
2019-08-23 07:00:00 12.2 19 Nordeste 22 Nordeste 0 -- -- 32
2019-08-23 06:00:00 12 13 Nordeste 21 Nordeste 0 -- -- 28
2019-08-23 05:00:00 12.1 18 Nordeste 23 Nordeste 0 -- -- 23
2019-08-23 04:00:00 13.3 9 Nordeste 16 Este 0 -- -- 19
2019-08-23 03:00:00 13.9 13 Este 21 Nordeste 0 -- -- 18
2019-08-23 02:00:00 16.1 11 Este 14 Nordeste 0 -- -- 12
2019-08-23 01:00:00 14.9 6 Nordeste 9 Nordeste 0 -- -- 22
2019-08-23 00:00:00 19.4 8 Nordeste 12 Nordeste 0 -- -- 11
2019-08-22 23:00:00 17.5 9 Nordeste 13 Nordeste 0 -- -- 20
2019-08-22 22:00:00 19.2 8 Nordeste 11 Nordeste 0 -- -- 19
2019-08-22 21:00:00 25.7 8 Nordeste 18 Nordeste 0 -- -- 7
2019-08-22 20:00:00 29.4 13 Nordeste 22 Nordeste 0 -- -- 2
2019-08-22 19:00:00 30.6 13 Nordeste 22 Nordeste 0 -- -- 4
2019-08-22 18:00:00 30.2 14 Norte 24 Norte 0 -- -- 5
2019-08-22 17:00:00 31.1 9 Este 30 Nordeste 0 -- -- 4
2019-08-22 16:00:00 30 14 Nordeste 27 Este 0 -- -- 6
2019-08-22 15:00:00 30 16 Este 37 Este 0 -- -- 7
2019-08-22 14:00:00 27.2 21 Nordeste 32 Nordeste 0 -- -- 16
2019-08-22 13:00:00 25 24 Nordeste 37 Nordeste 0 -- -- 25
2019-08-22 12:00:00 21.8 27 Nordeste 36 Nordeste 0 -- -- 33
2019-08-22 11:00:00 18.6 25 Nordeste 39 Nordeste 0 -- -- 41
2019-08-22 10:00:00 16.5 23 Nordeste 48 Nordeste 0 -- -- 47
2019-08-22 09:00:00 14.2 28 Nordeste 37 Nordeste 0 -- -- 57
2019-08-22 08:00:00 12.8 23 Nordeste 41 Nordeste 0 -- -- 66
2019-08-22 07:00:00 13.2 26 Nordeste 36 Nordeste 0 -- -- 66
2019-08-22 06:00:00 13.9 28 Nordeste 41 Nordeste 0 -- -- 66
2019-08-22 05:00:00 14.4 23 Nordeste 30 Nordeste 0 -- -- 65
2019-08-22 04:00:00 15.3 19 Nordeste 26 Nordeste 0 -- -- 61
2019-08-22 03:00:00 16.9 18 Nordeste 23 Nordeste 0 -- -- 52
2019-08-22 02:00:00 18.4 18 Nordeste 28 Nordeste 0 -- -- 35
2019-08-22 01:00:00 20 20 Nordeste 25 Nordeste 0 -- -- 31
2019-08-22 00:00:00 18.8 4 Este 8 Nordeste 0 -- -- 34
2019-08-21 23:00:00 20 5 Nordeste 9 Nordeste 0 -- -- 30
2019-08-21 22:00:00 22.6 2 Noroeste 5 Noroeste 0 -- -- 23
2019-08-21 21:00:00 27.7 4 Sudeste 12 Este 0 -- -- 14
2019-08-21 20:00:00 30.4 7 Este 14 Este 0 -- -- 10
2019-08-21 19:00:00 31.3 7 Este 22 Nordeste 0 -- -- 10
2019-08-21 18:00:00 30.2 7 Oeste 19 Norte 0 -- -- 12
2019-08-21 17:00:00 29.2 12 Noroeste 22 Norte 0 -- -- 7
2019-08-21 16:00:00 28.3 8 Nordeste 33 Nordeste 0 -- -- 16
2019-08-21 15:00:00 27.3 7 Este 22 Norte 0 -- -- 21
2019-08-21 14:00:00 23.7 14 Nordeste 24 Nordeste 0 -- -- 30
2019-08-21 13:00:00 22.8 17 Nordeste 28 Nordeste 0 -- -- 31
2019-08-21 12:00:00 18.4 22 Nordeste 28 Nordeste 0 -- -- 41
2019-08-21 11:00:00 16.2 18 Nordeste 30 Nordeste 0 -- -- 48
2019-08-21 10:00:00 14.3 23 Nordeste 39 Nordeste 0 -- -- 54
2019-08-21 09:00:00 13.6 26 Nordeste 33 Nordeste 0 -- -- 58
2019-08-21 08:00:00 12.3 22 Nordeste 30 Nordeste 0 -- -- 63
2019-08-21 07:00:00 12.5 25 Nordeste 39 Nordeste 0 -- -- 61
2019-08-21 06:00:00 12.7 26 Nordeste 37 Nordeste 0 -- -- 60
2019-08-21 05:00:00 13.1 24 Nordeste 43 Nordeste 0 -- -- 59
2019-08-21 04:00:00 13.5 28 Nordeste 39 Nordeste 0 -- -- 56
2019-08-21 03:00:00 13.9 26 Nordeste 39 Nordeste 0 -- -- 53
2019-08-21 02:00:00 14.7 27 Nordeste 36 Nordeste 0 -- -- 47
2019-08-21 01:00:00 15.8 28 Nordeste 39 Nordeste 0 -- -- 40
2019-08-21 00:00:00 16.8 27 Nordeste 57 Nordeste 0 -- -- 36
2019-08-20 23:00:00 17.8 25 Nordeste 36 Nordeste 0 -- -- 32
2019-08-20 22:00:00 19.4 24 Nordeste 33 Nordeste 0 -- -- 27
2019-08-20 21:00:00 21.6 23 Nordeste 33 Nordeste 0 -- -- 21
2019-08-20 20:00:00 24.1 26 Nordeste 38 Nordeste 0 -- -- 15
2019-08-20 19:00:00 25.4 27 Nordeste 42 Nordeste 0 -- -- 15
2019-08-20 18:00:00 25.8 24 Nordeste 43 Este 0 -- -- 13
2019-08-20 17:00:00 26.2 23 Este 41 Nordeste 0 -- -- 14
2019-08-20 16:00:00 25.1 26 Nordeste 43 Nordeste 0 -- -- 16
2019-08-20 15:00:00 24.4 25 Nordeste 41 Nordeste 0 -- -- 19
2019-08-20 14:00:00 22.9 26 Nordeste 43 Nordeste 0 -- -- 26
2019-08-20 13:00:00 21.4 30 Nordeste 53 Nordeste 0 -- -- 32
2019-08-20 12:00:00 18.9 31 Nordeste 55 Nordeste 0 -- -- 40
2019-08-20 11:00:00 16.2 37 Nordeste 66 Nordeste 0 -- -- 49
2019-08-20 10:00:00 14.8 44 Nordeste 58 Nordeste 0 -- -- 54
2019-08-20 09:00:00 13.3 36 Nordeste 45 Nordeste 0 -- -- 61
2019-08-20 08:00:00 12 30 Nordeste 41 Nordeste 0 -- -- 67
2019-08-20 07:00:00 12.1 28 Nordeste 44 Nordeste 0 -- -- 66
2019-08-20 06:00:00 12.5 29 Nordeste 40 Nordeste 0 -- -- 63
2019-08-20 05:00:00 13.1 27 Nordeste 45 Nordeste 0 -- -- 60
2019-08-20 04:00:00 13.8 31 Nordeste 57 Nordeste 0 -- -- 58
2019-08-20 03:00:00 14.5 33 Nordeste 50 Nordeste 0 -- -- 55
2019-08-20 02:00:00 14.9 33 Nordeste 50 Nordeste 0 -- -- 54
2019-08-20 01:00:00 15.4 32 Nordeste 53 Nordeste 0 -- -- 52
2019-08-20 00:00:00 17.4 27 Nordeste 36 Nordeste 0 -- -- 45
2019-08-19 23:00:00 19.2 18 Nordeste 27 Este 0 -- -- 37
2019-08-19 22:00:00 20.5 21 Este 30 Este 0 -- -- 33
2019-08-19 21:00:00 22.1 7 Este 14 Nordeste 0 -- -- 26
2019-08-19 20:00:00 24.6 6 Este 12 Norte 0 -- -- 19
2019-08-19 19:00:00 25.3 8 Este 14 Este 0 -- -- 18
2019-08-19 18:00:00 25.8 8 Nordeste 15 Nordeste 0 -- -- 18
2019-08-19 17:00:00 25.9 4 Sur 12 Sur 0 -- -- 18
2019-08-19 16:00:00 24.6 5 Oeste 15 Nordeste 0 -- -- 23
2019-08-19 15:00:00 23.3 11 Nordeste 24 Norte 0 -- -- 25
2019-08-19 14:00:00 21.5 14 Nordeste 35 Este 0 -- -- 30
2019-08-19 13:00:00 20.2 19 Nordeste 30 Nordeste 0 -- -- 37
2019-08-19 12:00:00 17.6 22 Nordeste 35 Nordeste 0 -- -- 47
2019-08-19 11:00:00 16.6 26 Nordeste 37 Nordeste 0 -- -- 50
2019-08-19 10:00:00 15 24 Nordeste 36 Nordeste 0 -- -- 55
2019-08-19 09:00:00 13.7 22 Nordeste 29 Nordeste 0 -- -- 60
2019-08-19 08:00:00 13.2 22 Nordeste 30 Nordeste 0 -- -- 64
2019-08-19 07:00:00 13.2 20 Nordeste 37 Nordeste 0 -- -- 65
2019-08-19 06:00:00 13.3 17 Nordeste 23 Nordeste 0 -- -- 66
2019-08-19 05:00:00 14 15 Nordeste 21 Nordeste 0 -- -- 58
2019-08-19 04:00:00 14.5 11 Nordeste 18 Nordeste 0 -- -- 53
2019-08-19 03:00:00 15.3 14 Nordeste 28 Nordeste 0 -- -- 50
2019-08-19 02:00:00 15.5 4 Nordeste 6 Noroeste 0 -- -- 58
2019-08-19 01:00:00 17 5 Norte 15 Noroeste 0 -- -- 54
2019-08-19 00:00:00 18.2 8 Norte 17 Noroeste 0 -- -- 50
2019-08-18 23:00:00 18.8 8 Noroeste 17 Noroeste 0 -- -- 43
2019-08-18 22:00:00 20.5 11 Oeste 28 Oeste 0 -- -- 29
2019-08-18 21:00:00 23.8 22 Oeste 36 Oeste 0 -- -- 30
2019-08-18 20:00:00 25.7 23 Oeste 39 Oeste 0 -- -- 27
2019-08-18 19:00:00 26 24 Oeste 39 Oeste 0 -- -- 27
2019-08-18 18:00:00 26.6 24 Oeste 38 Oeste 0 -- -- 27
2019-08-18 17:00:00 26 26 Oeste 44 Oeste 0 -- -- 30
2019-08-18 16:00:00 25.4 19 Oeste 37 Oeste 0 -- -- 33
2019-08-18 15:00:00 25.5 25 Oeste 36 Oeste 0 -- -- 32
2019-08-18 14:00:00 24.1 18 Oeste 32 Oeste 0 -- -- 36
2019-08-18 13:00:00 21.1 18 Oeste 28 Oeste 0 -- -- 45
2019-08-18 12:00:00 19.8 16 Oeste 27 Sudoeste 0 -- -- 48
2019-08-18 11:00:00 18.3 17 Oeste 27 Sudoeste 0 -- -- 56
2019-08-18 10:00:00 16.5 13 Sudoeste 24 Sudoeste 0 -- -- 64
2019-08-18 09:00:00 15 11 Sudoeste 16 Sudoeste 0 -- -- 69
2019-08-18 08:00:00 12.9 10 Sudoeste 17 Sudoeste 0 -- -- 75
2019-08-18 07:00:00 12.6 9 Sudoeste 17 Oeste 0 -- -- 76
2019-08-18 06:00:00 14.7 15 Oeste 22 Oeste 0 -- -- 64
2019-08-18 05:00:00 15 13 Oeste 18 Oeste 0 -- -- 61
2019-08-18 04:00:00 14.6 9 Sudoeste 16 Oeste 0 -- -- 54
2019-08-18 03:00:00 16.9 9 Oeste 19 Oeste 0 -- -- 43
2019-08-18 02:00:00 19.2 17 Oeste 19 Oeste 0 -- -- 32
2019-08-18 01:00:00 20 17 Oeste 19 Oeste 0 -- -- 33
2019-08-18 00:00:00 21.7 11 Oeste 17 Oeste 0 -- -- 29
2019-08-17 23:00:00 23.2 11 Noroeste 19 Oeste 0 -- -- 22
2019-08-17 22:00:00 25.3 15 Oeste 24 Noroeste 0 -- -- 13
2019-08-17 21:00:00 29.1 15 Oeste 29 Oeste 0 -- -- 7
2019-08-17 20:00:00 31.2 20 Oeste 33 Sudoeste 0 -- -- 5
2019-08-17 19:00:00 31.8 23 Oeste 38 Oeste 0 -- -- 4
2019-08-17 18:00:00 32.1 19 Oeste 36 Oeste 0 -- -- 4
2019-08-17 17:00:00 32.1 17 Oeste 40 Oeste 0 -- -- 4
2019-08-17 16:00:00 31.6 18 Oeste 32 Oeste 0 -- -- 6
2019-08-17 15:00:00 31.1 15 Sudoeste 30 Sudoeste 0 -- -- 6
2019-08-17 14:00:00 30.2 11 Oeste 25 Oeste 0 -- -- 12
2019-08-17 13:00:00 28.8 8 Sudoeste 19 Oeste 0 -- -- 15
2019-08-17 12:00:00 26.5 7 Oeste 17 Oeste 0 -- -- 22
2019-08-17 11:00:00 23.1 9 Oeste 17 Oeste 0 -- -- 26
2019-08-17 10:00:00 19.6 9 Oeste 24 Oeste 0 -- -- 42
2019-08-17 09:00:00 15.1 8 Sudoeste 10 Sudoeste 0 -- -- 60
2019-08-17 08:00:00 11.4 6 Sur 8 Sur 0 -- -- 72
2019-08-17 07:00:00 11.2 5 Sudoeste 9 Sudoeste 0 -- -- 73
2019-08-17 06:00:00 12.8 4 Sur 9 Sudoeste 0 -- -- 67
2019-08-17 05:00:00 13.5 5 Sudoeste 9 Sudoeste 0 -- -- 61
2019-08-17 04:00:00 15.3 5 Sudoeste 10 Sudoeste 0 -- -- 56
2019-08-17 03:00:00 16.4 9 Sudoeste 11 Sudoeste 0 -- -- 50
2019-08-17 02:00:00 17.6 4 Sudoeste 8 Noroeste 0 -- -- 45
2019-08-17 01:00:00 19.1 6 Noroeste 19 Oeste 0 -- -- 38
2019-08-17 00:00:00 21.1 12 Noroeste 19 Oeste 0 -- -- 33
2019-08-16 23:00:00 22.8 14 Oeste 19 Oeste 0 -- -- 27
2019-08-16 22:00:00 24.6 12 Oeste 15 Oeste 0 -- -- 17
2019-08-16 21:00:00 28.6 12 Oeste 26 Oeste 0 -- -- 9
2019-08-16 20:00:00 31.3 19 Noroeste 33 Oeste 0 -- -- 3
2019-08-16 19:00:00 31.8 22 Oeste 39 Oeste 0 -- -- 5
2019-08-16 18:00:00 32.5 21 Oeste 40 Oeste 0 -- -- --
2019-08-16 17:00:00 32.1 18 Oeste 33 Oeste 0 -- -- 2
2019-08-16 16:00:00 31.2 14 Oeste 37 Oeste 0 -- -- --
2019-08-16 15:00:00 30.1 14 Oeste 28 Sudoeste 0 -- -- 6
2019-08-16 14:00:00 29.2 14 Sudoeste 26 Oeste 0 -- -- 16
2019-08-16 13:00:00 27.8 5 Noroeste 17 Oeste 0 -- -- 19
2019-08-16 12:00:00 25.3 7 Noroeste 16 Norte 0 -- -- 25
2019-08-16 11:00:00 22.5 9 Nordeste 21 Este 0 -- -- 32
2019-08-16 10:00:00 19.3 15 Nordeste 23 Nordeste 0 -- -- 42
2019-08-16 09:00:00 16.9 17 Nordeste 24 Nordeste 0 -- -- 52
2019-08-16 08:00:00 13.3 6 Nordeste 12 Nordeste 0 -- -- 64
2019-08-16 07:00:00 13.9 10 Nordeste 17 Nordeste 0 -- -- 60
2019-08-16 06:00:00 14.8 8 Nordeste 14 Nordeste 0 -- -- 56
2019-08-16 05:00:00 15.3 12 Nordeste 21 Nordeste 0 -- -- 57
2019-08-16 04:00:00 17.7 16 Nordeste 29 Nordeste 0 -- -- 49
2019-08-16 03:00:00 18.9 16 Nordeste 22 Nordeste 0 -- -- 44
2019-08-16 02:00:00 19.6 10 Norte 13 Norte 0 -- -- 43
2019-08-16 01:00:00 20.1 9 Norte 13 Nordeste 0 -- -- 43
2019-08-16 00:00:00 21.7 8 Noroeste 14 Noroeste 0 -- -- 38
2019-08-15 23:00:00 22.9 7 Noroeste 12 Noroeste 0 -- -- 31
2019-08-15 22:00:00 24.5 9 Noroeste 19 Noroeste 0 -- -- 22
2019-08-15 21:00:00 29 12 Noroeste 23 Noroeste 0 -- -- 14
2019-08-15 20:00:00 31.4 14 Noroeste 27 Oeste 0 -- -- 10
2019-08-15 19:00:00 31.9 13 Oeste 26 Oeste 0 -- -- 7
2019-08-15 18:00:00 31.9 7 Sudoeste 27 Sudoeste 0 -- -- 7
2019-08-15 17:00:00 32.1 7 Sudoeste 18 Sudeste 0 -- -- 8
2019-08-15 16:00:00 31.4 6 Sur 14 Sudoeste 0 -- -- 9
2019-08-15 15:00:00 30.1 8 Este 30 Nordeste 0 -- -- 10
2019-08-15 14:00:00 28.8 10 Este 27 Nordeste 0 -- -- 16
2019-08-15 13:00:00 25.8 17 Nordeste 31 Nordeste 0 -- -- 23
2019-08-15 12:00:00 24.2 18 Nordeste 31 Nordeste 0 -- -- 22
2019-08-15 11:00:00 22.3 18 Este 26 Nordeste 0 -- -- 35
2019-08-15 10:00:00 19.4 18 Este 30 Nordeste 0 -- -- 51
2019-08-15 09:00:00 16.6 17 Nordeste 21 Nordeste 0 -- -- 64
2019-08-15 08:00:00 13.5 15 Nordeste 18 Nordeste 0 -- -- 73
2019-08-15 07:00:00 14.1 10 Nordeste 19 Nordeste 0 -- -- 68
2019-08-15 06:00:00 15 7 Nordeste 13 Nordeste 0 -- -- 67
2019-08-15 05:00:00 14.5 9 Este 12 Este 0 -- -- 72
2019-08-15 04:00:00 16.1 8 Nordeste 13 Este 0 -- -- 66
2019-08-15 03:00:00 15.9 7 Nordeste 10 Nordeste 0 -- -- 65
2019-08-15 02:00:00 17.6 5 Sudoeste 7 Oeste 0 -- -- 61
2019-08-15 01:00:00 18.4 3 Sudoeste 10 Noroeste 0 -- -- 56
2019-08-15 00:00:00 21.3 2 Noroeste 18 Oeste 0 -- -- 47
2019-08-14 23:00:00 22.8 13 Noroeste 20 Oeste 0 -- -- 40
2019-08-14 22:00:00 24.6 15 Oeste 27 Oeste 0 -- -- 33
2019-08-14 21:00:00 27.6 17 Oeste 28 Oeste 0 -- -- 23
2019-08-14 20:00:00 29.5 16 Oeste 33 Oeste 0 -- -- 18
2019-08-14 19:00:00 30.2 17 Oeste 31 Noroeste 0 -- -- 15
2019-08-14 18:00:00 31.3 12 Noroeste 34 Oeste 0 -- -- 12
2019-08-14 17:00:00 30.7 9 Oeste 31 Oeste 0 -- -- 11
2019-08-14 16:00:00 30.2 12 Oeste 28 Sudoeste 0 -- -- 10
2019-08-14 15:00:00 28.6 14 Noroeste 28 Noroeste 0 -- -- 12
2019-08-14 14:00:00 27.5 11 Noroeste 26 Oeste 0 -- -- 12
2019-08-14 13:00:00 26.6 12 Oeste 26 Oeste 0 -- -- 12
2019-08-14 12:00:00 25 5 Sudoeste 14 Sudoeste 0 -- -- 13
2019-08-14 11:00:00 22.4 5 Noroeste 12 Noroeste 0 -- -- 20
2019-08-14 10:00:00 18.9 7 Este 12 Este 0 -- -- 29
2019-08-14 09:00:00 15.5 7 Este 10 Nordeste 0 -- -- 37
2019-08-14 08:00:00 9.8 3 Nordeste 5 Nordeste 0 -- -- 56
2019-08-14 07:00:00 9.3 3 Sudeste 8 Norte 0 -- -- 53
2019-08-14 06:00:00 9.7 2 Nordeste 7 Noroeste 0 -- -- 50
2019-08-14 05:00:00 11.1 0 Calma 5 Sudeste 0 -- -- 42
2019-08-14 04:00:00 10.2 3 Este 4 Oeste 0 -- -- 49
2019-08-14 03:00:00 11.9 3 Sudeste 5 Sudeste 0 -- -- 38
2019-08-14 02:00:00 12.6 0 Calma 5 Sudoeste 0 -- -- 38
2019-08-14 01:00:00 14.2 3 Sudeste 6 Nordeste 0 -- -- 30
2019-08-14 00:00:00 16.6 5 Norte 13 Norte 0 -- -- 23
2019-08-13 23:00:00 16.8 8 Nordeste 14 Nordeste 0 -- -- 19
2019-08-13 22:00:00 20.9 7 Noroeste 15 Noroeste 0 -- -- 10
2019-08-13 21:00:00 26.3 4 Noroeste 15 Noroeste 0 -- -- 4
2019-08-13 20:00:00 27.9 5 Noroeste 13 Noroeste 0 -- -- --
2019-08-13 19:00:00 27.5 7 Norte 16 Este 0 -- -- 3
2019-08-13 18:00:00 27 8 Norte 23 Norte 0 -- -- 4
2019-08-13 17:00:00 27 6 Sur 22 Oeste 0 -- -- 5
2019-08-13 16:00:00 26.3 5 Sudeste 15 Este 0 -- -- 7
2019-08-13 15:00:00 25.1 5 Este 22 Nordeste 0 -- -- 9
2019-08-13 14:00:00 22.6 12 Nordeste 23 Norte 0 -- -- 15
2019-08-13 13:00:00 21.6 13 Nordeste 26 Este 0 -- -- 19
2019-08-13 12:00:00 18.9 18 Nordeste 28 Este 0 -- -- 26
2019-08-13 11:00:00 15.9 20 Nordeste 36 Este 0 -- -- 35
2019-08-13 10:00:00 13.6 28 Nordeste 37 Nordeste 0 -- -- 45
2019-08-13 09:00:00 10.8 26 Nordeste 35 Nordeste 0 -- -- 58
2019-08-13 08:00:00 8.9 18 Nordeste 24 Nordeste 0 -- -- 65
2019-08-13 07:00:00 8.8 17 Nordeste 25 Nordeste 0 -- -- 64
2019-08-13 06:00:00 9.6 21 Nordeste 28 Nordeste 0 -- -- 61
2019-08-13 05:00:00 10.2 23 Nordeste 31 Nordeste 0 -- -- 59
2019-08-13 04:00:00 10.5 20 Nordeste 26 Nordeste 0 -- -- 57
2019-08-13 03:00:00 11.7 19 Nordeste 30 Nordeste 0 -- -- 52
2019-08-13 02:00:00 12.6 22 Nordeste 28 Nordeste 0 -- -- 48
2019-08-13 01:00:00 13.6 18 Nordeste 28 Nordeste 0 -- -- 39
2019-08-13 00:00:00 15.7 21 Nordeste 32 Nordeste 0 -- -- 25
2019-08-12 23:00:00 15.6 12 Norte 18 Norte 0 -- -- 23
2019-08-12 22:00:00 17.6 9 Norte 16 Nordeste 0 -- -- 18
2019-08-12 21:00:00 20.7 14 Nordeste 20 Nordeste 0 -- -- 11
2019-08-12 20:00:00 20.5 15 Nordeste 26 Norte 0 -- -- 9
2019-08-12 19:00:00 22.1 17 Norte 31 Nordeste 0 -- -- 8
2019-08-12 18:00:00 23.1 16 Norte 44 Nordeste 0 -- -- 6
2019-08-12 17:00:00 22.8 14 Nordeste 39 Nordeste 0 -- -- 7
2019-08-12 16:00:00 21.9 18 Nordeste 32 Nordeste 0 -- -- 9
2019-08-12 15:00:00 21.1 16 Nordeste 33 Este 0 -- -- 14
2019-08-12 14:00:00 19.7 21 Nordeste 34 Nordeste 0 -- -- 16
2019-08-12 13:00:00 18.6 18 Nordeste 35 Nordeste 0 -- -- 25
2019-08-12 12:00:00 17 18 Este 33 Nordeste 0 -- -- 29
2019-08-12 11:00:00 15.2 24 Nordeste 31 Nordeste 0 -- -- 35
2019-08-12 10:00:00 12.9 20 Nordeste 27 Nordeste 0 -- -- 54
2019-08-12 09:00:00 10.2 10 Nordeste 13 Nordeste 0 -- -- 75
2019-08-12 08:00:00 5 4 Nordeste 5 Este 0 -- -- 95
2019-08-12 07:00:00 4.3 0 Calma 4 Sudeste 0 -- -- 91
2019-08-12 06:00:00 5.7 0 Calma 7 Sudeste 0 -- -- 75
2019-08-12 05:00:00 8 6 Norte 8 Norte 0 -- -- 67
2019-08-12 04:00:00 7.3 2 Este 8 Nordeste 0 -- -- 65
2019-08-12 03:00:00 8.4 0 Calma 11 Noroeste 0 -- -- 64
2019-08-12 02:00:00 10.1 5 Noroeste 17 Noroeste 0 -- -- 56
2019-08-12 01:00:00 11.3 9 Noroeste 12 Noroeste 0 -- -- 52
2019-08-12 00:00:00 12.8 4 Norte 17 Noroeste 0 -- -- 46
2019-08-11 23:00:00 14.3 9 Noroeste 27 Noroeste 0 -- -- 40
2019-08-11 22:00:00 16.3 15 Noroeste 30 Oeste 0 -- -- 32
2019-08-11 21:00:00 19 14 Noroeste 36 Noroeste 0 -- -- 22
2019-08-11 20:00:00 21.3 22 Noroeste 41 Oeste 0 -- -- 14
2019-08-11 19:00:00 21.9 26 Noroeste 41 Noroeste 0 -- -- 11
2019-08-11 18:00:00 21.8 28 Oeste 48 Oeste 0 -- -- 11
2019-08-11 17:00:00 22.1 22 Noroeste 49 Oeste 0 -- -- 13
2019-08-11 16:00:00 21.5 21 Oeste 41 Oeste 0 -- -- 13
2019-08-11 15:00:00 20 21 Oeste 32 Oeste 0 -- -- 22
2019-08-11 14:00:00 19.6 17 Oeste 35 Oeste 0 -- -- 25
2019-08-11 13:00:00 18.1 23 Oeste 33 Oeste 0 -- -- 36
2019-08-11 12:00:00 17.3 16 Noroeste 31 Oeste 0 -- -- 44
2019-08-11 11:00:00 15.2 18 Oeste 27 Oeste 0 -- -- 58
2019-08-11 10:00:00 14.2 14 Sudoeste 22 Sudoeste 0 -- -- 69
2019-08-11 09:00:00 13.3 14 Oeste 21 Oeste 0 -- -- 76
2019-08-11 08:00:00 13.3 10 Oeste 16 Oeste 0 -- -- 81
2019-08-11 07:00:00 12.3 7 Oeste 17 Oeste 0 -- -- 79
2019-08-11 06:00:00 12.9 9 Este 15 Este 0 -- -- 74
2019-08-11 05:00:00 12.8 15 Este 25 Este 0.4 -- -- 74
2019-08-11 04:00:00 13.6 19 Nordeste 25 Este 1.2 -- -- 70
2019-08-11 03:00:00 14.9 15 Noroeste 35 Oeste 0.4 -- -- 59
2019-08-11 02:00:00 17 13 Oeste 23 Oeste 0 -- -- 41
2019-08-11 01:00:00 17.8 11 Noroeste 16 Noroeste 0 -- -- 37
2019-08-11 00:00:00 18.5 8 Noroeste 14 Noroeste 0 -- -- 33
2019-08-10 23:00:00 18.9 6 Norte 24 Noroeste 0 -- -- 30
2019-08-10 22:00:00 20.1 17 Noroeste 27 Noroeste 0 -- -- 26
2019-08-10 21:00:00 22.4 13 Noroeste 27 Noroeste 0 -- -- 18
2019-08-10 20:00:00 23.1 21 Oeste 33 Oeste 0 -- -- 15
2019-08-10 19:00:00 24.4 22 Oeste 34 Oeste 0 -- -- 11
2019-08-10 18:00:00 25.2 16 Oeste 33 Oeste 0 -- -- 12
2019-08-10 17:00:00 25 16 Oeste 34 Sudoeste 0 -- -- 16
2019-08-10 16:00:00 24.5 13 Oeste 29 Oeste 0 -- -- 17
2019-08-10 15:00:00 23.6 10 Sudoeste 24 Sudoeste 0 -- -- 17
2019-08-10 14:00:00 22.4 10 Sudoeste 23 Sudoeste 0 -- -- 21
2019-08-10 13:00:00 21.2 11 Sudoeste 16 Sudoeste 0 -- -- 26
2019-08-10 12:00:00 20 5 Sudoeste 12 Oeste 0 -- -- 29
2019-08-10 11:00:00 18.4 3 Oeste 15 Noroeste 0 -- -- 37
2019-08-10 10:00:00 16.4 8 Oeste 20 Noroeste 0 -- -- 49
2019-08-10 09:00:00 14.6 9 Oeste 13 Oeste 0 -- -- 58
2019-08-10 08:00:00 13.9 4 Oeste 8 Oeste 0 -- -- 66
2019-08-10 07:00:00 13.4 4 Sudoeste 12 Sudeste 0 -- -- 71
2019-08-10 06:00:00 13.3 4 Sudeste 10 Sudoeste 0 -- -- 69
2019-08-10 05:00:00 13.6 8 Sudoeste 11 Sudoeste 0 -- -- 68
2019-08-10 04:00:00 13 5 Oeste 9 Oeste 0 -- -- 70
2019-08-10 03:00:00 12.7 3 Sudoeste 8 Oeste 0 -- -- 69
2019-08-10 02:00:00 12.4 0 Calma 8 Oeste 0 -- -- 68
2019-08-10 01:00:00 13.6 3 Oeste 14 Noroeste 0 -- -- 63
2019-08-10 00:00:00 14.8 12 Noroeste 19 Noroeste 0 -- -- 57
2019-08-09 23:00:00 16.2 12 Noroeste 25 Oeste 0 -- -- 50
2019-08-09 22:00:00 17.9 13 Noroeste 30 Noroeste 0 -- -- 41
2019-08-09 21:00:00 20.9 24 Oeste 34 Noroeste 0 -- -- 29
2019-08-09 20:00:00 23.3 21 Oeste 36 Oeste 0 -- -- 26
2019-08-09 19:00:00 23.8 27 Oeste 41 Oeste 0 -- -- 24
2019-08-09 18:00:00 24.5 30 Oeste 49 Oeste 0 -- -- 19
2019-08-09 17:00:00 24.1 30 Oeste 48 Sudoeste 0 -- -- 21
2019-08-09 16:00:00 24.5 31 Sudoeste 46 Sudoeste 0 -- -- 16
2019-08-09 15:00:00 23.4 30 Oeste 45 Oeste 0 -- -- 24
2019-08-09 14:00:00 21.8 25 Oeste 49 Oeste 0 -- -- 52
2019-08-09 13:00:00 20 35 Sudoeste 48 Oeste 0.2 -- -- 60
2019-08-09 12:00:00 18 23 Oeste 39 Oeste 0 -- -- 81
2019-08-09 11:00:00 16.2 26 Oeste 57 Oeste 0.2 -- -- 91
2019-08-09 10:00:00 16.1 30 Oeste 45 Oeste 1 -- -- 96
2019-08-09 09:00:00 16.5 27 Oeste 43 Oeste 2.4 -- -- 97
2019-08-09 08:00:00 18.3 27 Sudoeste 46 Sudoeste 0 -- -- 89
2019-08-09 07:00:00 19.6 32 Sudoeste 45 Sudoeste 0 -- -- 65
2019-08-09 06:00:00 19.3 25 Sudoeste 35 Sudoeste 0 -- -- 64
2019-08-09 05:00:00 19.4 19 Sudoeste 35 Sudoeste 0 -- -- 61
2019-08-09 04:00:00 19.7 20 Sudoeste 30 Sudoeste 0 -- -- 59
2019-08-09 03:00:00 19.3 17 Sudoeste 27 Sudoeste 0 -- -- 58
2019-08-09 02:00:00 20.4 17 Sudoeste 29 Sudoeste 0 -- -- 52
2019-08-09 01:00:00 21.4 20 Sudoeste 37 Sudoeste 0 -- -- 48
2019-08-09 00:00:00 21.8 17 Sudoeste 25 Sudoeste 0 -- -- 44
2019-08-08 23:00:00 22.2 18 Sudoeste 32 Sudoeste 0 -- -- 41
2019-08-08 22:00:00 23.5 25 Sudoeste 41 Sudoeste 0 -- -- 37
2019-08-08 21:00:00 25.1 29 Sudoeste 50 Oeste 0 -- -- 32
2019-08-08 20:00:00 27 37 Sudoeste 51 Sudoeste 0 -- -- 27
2019-08-08 19:00:00 27.9 36 Sudoeste 51 Sudoeste 0 -- -- 25
2019-08-08 18:00:00 29 36 Sudoeste 53 Sudoeste 0 -- -- 24
2019-08-08 17:00:00 28.9 37 Sudoeste 66 Sudoeste 0 -- -- 24
2019-08-08 16:00:00 28.3 33 Sudoeste 49 Sudoeste 0 -- -- 26
2019-08-08 15:00:00 28.9 32 Sudoeste 48 Sudoeste 0 -- -- 27
2019-08-08 14:00:00 25.7 27 Sudoeste 48 Oeste 0 -- -- 37
2019-08-08 13:00:00 25.1 24 Sudoeste 46 Sudoeste 0 -- -- 41
2019-08-08 12:00:00 24.9 26 Sudoeste 40 Sudoeste 0 -- -- 42
2019-08-08 11:00:00 22.7 22 Sudoeste 33 Sudoeste 0 -- -- 50
2019-08-08 10:00:00 21.6 21 Sudoeste 35 Sur 0 -- -- 53
2019-08-08 09:00:00 19.2 21 Sudoeste 35 Sudoeste 0 -- -- 61
2019-08-08 08:00:00 18.9 17 Sudoeste 30 Sudoeste 0 -- -- 57
2019-08-08 07:00:00 18.1 22 Sudoeste 30 Sudoeste 0 -- -- 63
2019-08-08 06:00:00 18.5 17 Sudoeste 28 Sudoeste 0 -- -- 60
2019-08-08 05:00:00 18 14 Sur 18 Sudoeste 0 -- -- 55
2019-08-08 04:00:00 18.8 13 Sudoeste 21 Sudoeste 0 -- -- 53
2019-08-08 03:00:00 19.1 18 Sudoeste 30 Sudoeste 0 -- -- 52
2019-08-08 02:00:00 20.4 14 Sudoeste 19 Sudoeste 0 -- -- 46
2019-08-08 01:00:00 19.9 5 Sudoeste 10 Sudoeste 0 -- -- 55
2019-08-08 00:00:00 19.2 2 Este 4 Este 0 -- -- 59
2019-08-07 23:00:00 19.5 0 Calma 6 Norte 0 -- -- 56
2019-08-07 22:00:00 20 6 Nordeste 13 Norte 0 -- -- 55
2019-08-07 21:00:00 21.6 10 Noroeste 16 Sudoeste 0 -- -- 45
2019-08-07 20:00:00 24 10 Sudoeste 20 Oeste 0 -- -- 32
2019-08-07 19:00:00 22 8 Noroeste 25 Noroeste 0 -- -- 40
2019-08-07 18:00:00 22.8 15 Noroeste 30 Oeste 0 -- -- 37
2019-08-07 17:00:00 23.1 19 Noroeste 33 Oeste 0 -- -- 35
2019-08-07 16:00:00 24.6 20 Oeste 35 Oeste 0 -- -- 24
2019-08-07 15:00:00 25.4 19 Oeste 31 Sudoeste 0 -- -- 22
2019-08-07 14:00:00 24.2 16 Sudoeste 24 Sudoeste 0 -- -- 30
2019-08-07 13:00:00 22.5 16 Sudoeste 23 Sudoeste 0 -- -- 39
2019-08-07 12:00:00 22 11 Oeste 19 Sudoeste 0 -- -- 46
2019-08-07 11:00:00 20.9 12 Sudoeste 18 Sudoeste 0 -- -- 50
2019-08-07 10:00:00 18.6 13 Sudoeste 17 Sudoeste 0 -- -- 60
2019-08-07 09:00:00 17.3 10 Sudoeste 13 Sudoeste 0 -- -- 67
2019-08-07 08:00:00 15.7 6 Sudoeste 9 Sudoeste 0 -- -- 72
2019-08-07 07:00:00 15 4 Sudoeste 6 Sur 0 -- -- 71
2019-08-07 06:00:00 15.5 2 Sudeste 12 Oeste 0 -- -- 67
2019-08-07 05:00:00 17.4 5 Sudoeste 13 Oeste 0 -- -- 60
2019-08-07 04:00:00 18.5 7 Oeste 12 Sudoeste 0 -- -- 55
2019-08-07 03:00:00 19.4 8 Sudoeste 12 Oeste 0 -- -- 54
2019-08-07 02:00:00 20.1 5 Oeste 10 Oeste 0 -- -- 49
2019-08-07 01:00:00 20.9 8 Oeste 21 Oeste 0 -- -- 45
2019-08-07 00:00:00 21.4 10 Oeste 15 Oeste 0 -- -- 43
2019-08-06 23:00:00 22 8 Oeste 22 Oeste 0 -- -- 39
2019-08-06 22:00:00 22.7 11 Noroeste 24 Noroeste 0 -- -- 36
2019-08-06 21:00:00 23.9 14 Noroeste 31 Noroeste 0 -- -- 32
2019-08-06 20:00:00 26 17 Noroeste 33 Noroeste 0 -- -- 24
2019-08-06 19:00:00 27.8 19 Noroeste 32 Oeste 0 -- -- 16
2019-08-06 18:00:00 28.9 21 Oeste 35 Noroeste 0 -- -- 13
2019-08-06 17:00:00 29.4 20 Oeste 30 Oeste 0 -- -- 8
2019-08-06 16:00:00 30 15 Oeste 32 Oeste 0 -- -- 10
2019-08-06 15:00:00 29.4 14 Oeste 28 Sudoeste 0 -- -- 14
2019-08-06 14:00:00 28.9 12 Oeste 23 Oeste 0 -- -- 15
2019-08-06 13:00:00 27.6 9 Oeste 19 Sudoeste 0 -- -- 21
2019-08-06 12:00:00 25.5 11 Oeste 21 Oeste 0 -- -- 31
2019-08-06 11:00:00 22.8 6 Oeste 17 Oeste 0 -- -- 42
2019-08-06 10:00:00 19.8 8 Oeste 13 Noroeste 0 -- -- 53
2019-08-06 09:00:00 16.9 8 Sur 10 Sur 0 -- -- 61
2019-08-06 08:00:00 14.5 8 Oeste 15 Noroeste 0 -- -- 69
2019-08-06 07:00:00 14.5 6 Sur 12 Sudoeste 0 -- -- 68
2019-08-06 06:00:00 15.3 8 Sudoeste 10 Sudoeste 0 -- -- 63
2019-08-06 05:00:00 16.2 9 Sudoeste 10 Sudoeste 0 -- -- 60
2019-08-06 04:00:00 17.2 5 Sur 10 Noroeste 0 -- -- 59
2019-08-06 03:00:00 18.2 10 Noroeste 18 Oeste 0 -- -- 54
2019-08-06 02:00:00 19.4 6 Sudoeste 9 Sudoeste 0 -- -- 48
2019-08-06 01:00:00 19.6 7 Sudoeste 16 Oeste 0 -- -- 43
2019-08-06 00:00:00 22.3 14 Oeste 17 Oeste 0 -- -- 31
2019-08-05 23:00:00 22.7 9 Oeste 17 Oeste 0 -- -- 26
2019-08-05 22:00:00 24.9 8 Oeste 22 Oeste 0 -- -- 16
2019-08-05 21:00:00 28.7 15 Oeste 29 Oeste 0 -- -- 9
2019-08-05 20:00:00 30.4 18 Oeste 33 Oeste 0 -- -- 7
2019-08-05 19:00:00 31.5 18 Oeste 31 Oeste 0 -- -- 7
2019-08-05 18:00:00 31.9 13 Oeste 31 Oeste 0 -- -- 5
2019-08-05 17:00:00 31.5 14 Oeste 32 Oeste 0 -- -- 7
2019-08-05 16:00:00 31 10 Noroeste 28 Oeste 0 -- -- 10
2019-08-05 15:00:00 30.3 6 Sudoeste 19 Sudoeste 0 -- -- 14
2019-08-05 14:00:00 29.6 8 Sur 16 Sudoeste 0 -- -- 17
2019-08-05 13:00:00 27.9 5 Sudoeste 14 Nordeste 0 -- -- 23
2019-08-05 12:00:00 25.8 8 Nordeste 16 Norte 0 -- -- 29
2019-08-05 11:00:00 23.1 10 Norte 15 Norte 0 -- -- 41
2019-08-05 10:00:00 20 8 Nordeste 17 Nordeste 0 -- -- 52
2019-08-05 09:00:00 17.2 12 Nordeste 15 Nordeste 0 -- -- 65
2019-08-05 08:00:00 12.9 0 Calma 3 Oeste 0 -- -- 84
2019-08-05 07:00:00 12.9 0 Calma 3 Nordeste 0 -- -- 80
2019-08-05 06:00:00 13.8 0 Calma 4 Sudoeste 0 -- -- 70
2019-08-05 05:00:00 14.4 4 Sur 7 Sudeste 0 -- -- 66
2019-08-05 04:00:00 15.4 0 Calma 7 Sudoeste 0 -- -- 58
2019-08-05 03:00:00 17.1 4 Sudoeste 8 Oeste 0 -- -- 52
2019-08-05 02:00:00 18.1 4 Oeste 8 Oeste 0 -- -- 45
2019-08-05 01:00:00 19.1 3 Sudoeste 15 Oeste 0 -- -- 41
2019-08-05 00:00:00 21 11 Oeste 18 Oeste 0 -- -- 32
2019-08-04 23:00:00 23.1 12 Noroeste 19 Noroeste 0 -- -- 26
2019-08-04 22:00:00 24.7 10 Oeste 17 Noroeste 0 -- -- 16
2019-08-04 21:00:00 29 15 Noroeste 31 Noroeste 0 -- -- 10
2019-08-04 20:00:00 30.4 18 Oeste 37 Noroeste 0 -- -- 8
2019-08-04 19:00:00 30.9 19 Oeste 37 Oeste 0 -- -- 7
2019-08-04 18:00:00 30.8 27 Oeste 40 Oeste 0 -- -- 3
2019-08-04 17:00:00 30.8 21 Oeste 39 Oeste 0 -- -- 10
2019-08-04 16:00:00 30.8 19 Sudoeste 38 Oeste 0 -- -- 12
2019-08-04 15:00:00 29.9 16 Oeste 31 Sudoeste 0 -- -- 17
2019-08-04 14:00:00 28.8 14 Sudoeste 27 Sudoeste 0 -- -- 22
2019-08-04 13:00:00 28.1 8 Oeste 21 Noroeste 0 -- -- 23
2019-08-04 12:00:00 26.2 8 Oeste 15 Sudoeste 0 -- -- 32
2019-08-04 11:00:00 23.4 7 Noroeste 16 Oeste 0 -- -- 38
2019-08-04 10:00:00 20.6 9 Oeste 18 Noroeste 0 -- -- 50
2019-08-04 09:00:00 17.7 5 Sudoeste 10 Oeste 0 -- -- 61
2019-08-04 08:00:00 14.3 6 Sudoeste 9 Sudoeste 0 -- -- 69
2019-08-04 07:00:00 14.3 5 Sur 8 Sudoeste 0 -- -- 71
2019-08-04 06:00:00 15 6 Sudoeste 9 Sudoeste 0 -- -- 67
2019-08-04 05:00:00 15.7 9 Sudoeste 11 Sudoeste 0 -- -- 62
2019-08-04 04:00:00 16.1 6 Sudeste 12 Este 0 -- -- 62
2019-08-04 03:00:00 17.6 4 Sudoeste 14 Oeste 0 -- -- 55
2019-08-04 02:00:00 19.9 12 Oeste 20 Oeste 0 -- -- 44
2019-08-04 01:00:00 20.9 12 Oeste 14 Oeste 0 -- -- 36
2019-08-04 00:00:00 22.1 6 Oeste 15 Noroeste 0 -- -- 29
2019-08-03 23:00:00 24.6 11 Noroeste 23 Noroeste 0 -- -- 23
2019-08-03 22:00:00 26.5 15 Noroeste 28 Oeste 0 -- -- 16
2019-08-03 21:00:00 29.9 15 Oeste 30 Oeste 0 -- -- 10
2019-08-03 20:00:00 31.6 17 Oeste 30 Oeste 0 -- -- 6
2019-08-03 19:00:00 32.4 13 Oeste 37 Oeste 0 -- -- 5
2019-08-03 18:00:00 32.9 13 Oeste 32 Oeste 0 -- -- 6
2019-08-03 17:00:00 32.9 11 Oeste 33 Noroeste 0 -- -- 7
2019-08-03 16:00:00 32.5 10 Oeste 28 Oeste 0 -- -- 7
2019-08-03 15:00:00 32 9 Sudoeste 25 Sudoeste 0 -- -- 8
2019-08-03 14:00:00 31.9 6 Este 15 Noroeste 0 -- -- 10
2019-08-03 13:00:00 28.9 8 Norte 16 Norte 0 -- -- 17
2019-08-03 12:00:00 26.6 7 Nordeste 14 Este 0 -- -- 23
2019-08-03 11:00:00 23.8 8 Nordeste 21 Nordeste 0 -- -- 30
2019-08-03 10:00:00 21 15 Nordeste 23 Nordeste 0 -- -- 38
2019-08-03 09:00:00 18.4 17 Nordeste 23 Nordeste 0 -- -- 47
2019-08-03 08:00:00 16.3 15 Nordeste 20 Nordeste 0 -- -- 55
2019-08-03 07:00:00 14.9 11 Nordeste 15 Nordeste 0 -- -- 60
2019-08-03 06:00:00 16.3 14 Nordeste 21 Nordeste 0 -- -- 54
2019-08-03 05:00:00 16.3 14 Nordeste 22 Nordeste 0 -- -- 50
2019-08-03 04:00:00 16.1 7 Nordeste 13 Norte 0 -- -- 49
2019-08-03 03:00:00 18.6 8 Norte 10 Norte 0 -- -- 40
2019-08-03 02:00:00 17.4 2 Noroeste 8 Noroeste 0 -- -- 39
2019-08-03 01:00:00 20.8 5 Noroeste 10 Norte 0 -- -- 29
2019-08-03 00:00:00 19.9 5 Nordeste 9 Nordeste 0 -- -- 30
2019-08-02 23:00:00 21.9 5 Norte 9 Noroeste 0 -- -- 26
2019-08-02 22:00:00 25.5 7 Noroeste 13 Oeste 0 -- -- 13
2019-08-02 21:00:00 30.6 10 Noroeste 17 Oeste 0 -- -- 5
2019-08-02 20:00:00 32.6 6 Sudoeste 17 Sudoeste 0 -- -- 4
2019-08-02 19:00:00 33.8 5 Este 17 Sudoeste 0 -- -- 3
2019-08-02 18:00:00 32.8 6 Nordeste 21 Norte 0 -- -- 3
2019-08-02 17:00:00 33.1 4 Sudeste 14 Sur 0 -- -- 4
2019-08-02 16:00:00 32 5 Norte 16 Este 0 -- -- 7
2019-08-02 15:00:00 31.2 6 Este 19 Nordeste 0 -- -- 10
2019-08-02 14:00:00 28.8 10 Este 22 Nordeste 0 -- -- 19
2019-08-02 13:00:00 25.6 15 Este 31 Nordeste 0 -- -- 28
2019-08-02 12:00:00 22.5 16 Nordeste 24 Nordeste 0 -- -- 38
2019-08-02 11:00:00 19.9 16 Nordeste 27 Nordeste 0 -- -- 47
2019-08-02 10:00:00 17.2 20 Nordeste 28 Nordeste 0 -- -- 56
2019-08-02 09:00:00 14.6 22 Nordeste 28 Nordeste 0 -- -- 68
2019-08-02 08:00:00 13.1 15 Nordeste 20 Nordeste 0 -- -- 80
2019-08-02 07:00:00 12.6 13 Nordeste 19 Nordeste 0 -- -- 82
2019-08-02 06:00:00 13.3 15 Nordeste 24 Nordeste 0 -- -- 74
2019-08-02 05:00:00 13.7 17 Nordeste 22 Nordeste 0 -- -- 73
2019-08-02 04:00:00 14.7 14 Nordeste 26 Nordeste 0 -- -- 69
2019-08-02 03:00:00 16 13 Nordeste 23 Nordeste 0 -- -- 63
2019-08-02 02:00:00 18.3 15 Nordeste 21 Nordeste 0 -- -- 42
2019-08-02 01:00:00 17.3 6 Noroeste 10 Noroeste 0 -- -- 35
2019-08-02 00:00:00 19.5 6 Noroeste 10 Noroeste 0 -- -- 25
2019-08-01 23:00:00 21 7 Noroeste 13 Oeste 0 -- -- 20
2019-08-01 22:00:00 23.8 4 Noroeste 16 Noroeste 0 -- -- 14
2019-08-01 21:00:00 28 10 Noroeste 23 Noroeste 0 -- -- 7
2019-08-01 20:00:00 29.1 17 Sudoeste 29 Oeste 0 -- -- 5
2019-08-01 19:00:00 29.8 15 Oeste 28 Oeste 0 -- -- 5
2019-08-01 18:00:00 29.5 18 Oeste 35 Sudoeste 0 -- -- 3
2019-08-01 17:00:00 29.5 19 Oeste 38 Oeste 0 -- -- 7
2019-08-01 16:00:00 28.9 15 Oeste 31 Oeste 0 -- -- 9
2019-08-01 15:00:00 28.3 13 Oeste 28 Oeste 0 -- -- 9
2019-08-01 14:00:00 27.9 10 Sur 21 Sudoeste 0 -- -- 13
2019-08-01 13:00:00 26.3 6 Noroeste 17 Oeste 0 -- -- 21
2019-08-01 12:00:00 23.3 9 Norte 19 Norte 0 -- -- 29
2019-08-01 11:00:00 20.8 10 Nordeste 19 Nordeste 0 -- -- 40
2019-08-01 10:00:00 18 14 Nordeste 27 Este 0 -- -- 49
2019-08-01 09:00:00 15.8 14 Nordeste 18 Nordeste 0 -- -- 58
2019-08-01 08:00:00 13.2 11 Nordeste 18 Nordeste 0 -- -- 67
2019-08-01 07:00:00 12.5 15 Nordeste 24 Nordeste 0 -- -- 69
2019-08-01 06:00:00 12.8 11 Este 22 Nordeste 0 -- -- 66
2019-08-01 05:00:00 14.9 17 Nordeste 22 Nordeste 0 -- -- 58
2019-08-01 04:00:00 15.9 15 Nordeste 21 Nordeste 0 -- -- 53
2019-08-01 03:00:00 16.7 12 Nordeste 21 Nordeste 0 -- -- 48
2019-08-01 02:00:00 17.4 10 Nordeste 18 Nordeste 0 -- -- 41
2019-08-01 01:00:00 19.5 15 Nordeste 22 Nordeste 0 -- -- 32
2019-08-01 00:00:00 19.3 12 Norte 15 Nordeste 0 -- -- 27
2019-07-31 23:00:00 20 9 Norte 12 Norte 0 -- -- 25
2019-07-31 22:00:00 21.4 10 Norte 21 Norte 0 -- -- 20
2019-07-31 21:00:00 24.2 13 Norte 22 Norte 0 -- -- 15
2019-07-31 20:00:00 24.9 14 Norte 31 Norte 0 -- -- 14
2019-07-31 19:00:00 25.6 19 Norte 28 Norte 0 -- -- 14
2019-07-31 18:00:00 26.6 12 Norte 23 Norte 0 -- -- 12
2019-07-31 17:00:00 26.4 12 Nordeste 23 Norte 0 -- -- 14
2019-07-31 16:00:00 26.1 17 Nordeste 32 Este 0 -- -- 15
2019-07-31 15:00:00 25.3 23 Este 34 Nordeste 0 -- -- 16
2019-07-31 14:00:00 23.9 21 Nordeste 37 Nordeste 0 -- -- 20
2019-07-31 13:00:00 21.5 28 Nordeste 38 Nordeste 0 -- -- 28
2019-07-31 12:00:00 19.2 30 Nordeste 39 Nordeste 0 -- -- 34
2019-07-31 11:00:00 17 30 Nordeste 40 Nordeste 0 -- -- 41
2019-07-31 10:00:00 14.4 28 Nordeste 48 Nordeste 0 -- -- 52
2019-07-31 09:00:00 12.2 31 Nordeste 40 Nordeste 0 -- -- 61
2019-07-31 08:00:00 10.6 23 Nordeste 33 Nordeste 0 -- -- 69
2019-07-31 07:00:00 10.3 20 Nordeste 34 Nordeste 0 -- -- 70
2019-07-31 06:00:00 10.8 24 Nordeste 42 Nordeste 0 -- -- 67
2019-07-31 05:00:00 11.6 26 Nordeste 34 Nordeste 0 -- -- 62
2019-07-31 04:00:00 12.1 24 Nordeste 33 Nordeste 0 -- -- 58
2019-07-31 03:00:00 13 25 Nordeste 32 Nordeste 0 -- -- 53
2019-07-31 02:00:00 14.4 20 Nordeste 26 Nordeste 0 -- -- 37
2019-07-31 01:00:00 14.2 16 Nordeste 19 Nordeste 0 -- -- 28
2019-07-31 00:00:00 13.5 11 Nordeste 15 Este 0 -- -- 34
2019-07-30 23:00:00 14.5 11 Este 14 Nordeste 0 -- -- 31
2019-07-30 22:00:00 18.5 9 Nordeste 16 Nordeste 0 -- -- 18
2019-07-30 21:00:00 23.3 13 Nordeste 25 Nordeste 0 -- -- 8
2019-07-30 20:00:00 24.9 13 Norte 23 Nordeste 0 -- -- 5
2019-07-30 19:00:00 25.4 12 Nordeste 26 Nordeste 0 -- -- 4
2019-07-30 18:00:00 25.5 16 Nordeste 27 Nordeste 0 -- -- 6
2019-07-30 17:00:00 25.2 10 Norte 33 Nordeste 0 -- -- 6
2019-07-30 16:00:00 24.3 14 Nordeste 31 Nordeste 0 -- -- 8
2019-07-30 15:00:00 22.8 17 Nordeste 31 Nordeste 0 -- -- 14
2019-07-30 14:00:00 21.6 16 Nordeste 32 Nordeste 0 -- -- 16
2019-07-30 13:00:00 19.8 14 Nordeste 30 Este 0 -- -- 22
2019-07-30 12:00:00 17.9 14 Nordeste 32 Nordeste 0 -- -- 28
2019-07-30 11:00:00 16 20 Nordeste 28 Nordeste 0 -- -- 33
2019-07-30 10:00:00 14 16 Nordeste 25 Nordeste 0 -- -- 42
2019-07-30 09:00:00 11.8 3 Norte 7 Norte 0 -- -- 55
2019-07-30 08:00:00 8 2 Sudeste 4 Sudeste 0 -- -- 76
2019-07-30 07:00:00 6.2 2 Sur 4 Sur 0 -- -- 86
2019-07-30 06:00:00 7.4 5 Sudeste 11 Sudeste 0 -- -- 71
2019-07-30 05:00:00 8 3 Norte 12 Noroeste 0 -- -- 68
2019-07-30 04:00:00 10.4 8 Noroeste 16 Noroeste 0 -- -- 57
2019-07-30 03:00:00 10.8 15 Oeste 21 Noroeste 0 -- -- 56
2019-07-30 02:00:00 11.9 5 Noroeste 22 Oeste 0 -- -- 51
2019-07-30 01:00:00 13.3 11 Noroeste 24 Noroeste 0 -- -- 44
2019-07-30 00:00:00 14.3 14 Noroeste 24 Noroeste 0 -- -- 37
2019-07-29 23:00:00 15.8 14 Noroeste 33 Noroeste 0 -- -- 31
2019-07-29 22:00:00 17.8 17 Noroeste 34 Noroeste 0 -- -- 27
2019-07-29 21:00:00 21 20 Noroeste 37 Noroeste 0 -- -- 19
2019-07-29 20:00:00 22.9 24 Noroeste 36 Noroeste 0 -- -- 15
2019-07-29 19:00:00 23.9 23 Oeste 50 Oeste 0 -- -- 13
2019-07-29 18:00:00 24.2 19 Oeste 41 Oeste 0 -- -- 13
2019-07-29 17:00:00 23.5 26 Oeste 45 Oeste 0 -- -- 16
2019-07-29 16:00:00 23.8 26 Oeste 41 Oeste 0 -- -- 17
2019-07-29 15:00:00 22.4 24 Oeste 46 Oeste 0 -- -- 23
2019-07-29 14:00:00 21.7 24 Oeste 45 Oeste 0 -- -- 25
2019-07-29 13:00:00 20 24 Oeste 36 Oeste 0 -- -- 32
2019-07-29 12:00:00 18.7 24 Oeste 41 Oeste 0 -- -- 40
2019-07-29 11:00:00 18.1 19 Oeste 39 Oeste 0 -- -- 46
2019-07-29 10:00:00 16.4 17 Sudoeste 27 Sudoeste 0 -- -- 44
2019-07-29 09:00:00 14.3 12 Sudoeste 17 Sudoeste 0 -- -- 51
2019-07-29 08:00:00 12 7 Sudoeste 15 Sudoeste 0 -- -- 64
2019-07-29 07:00:00 10.6 10 Sudoeste 15 Sudoeste 0 -- -- 61
2019-07-29 06:00:00 10.9 10 Sudoeste 17 Sudoeste 0 -- -- 56
2019-07-29 05:00:00 12.2 10 Sudoeste 14 Sudoeste 0 -- -- 58
2019-07-29 04:00:00 13.4 8 Oeste 12 Sudoeste 0 -- -- 48
2019-07-29 03:00:00 14.9 9 Sudoeste 19 Oeste 0 -- -- 42
2019-07-29 02:00:00 16.6 13 Oeste 20 Oeste 0 -- -- 38
2019-07-29 01:00:00 16.5 5 Sur 10 Noroeste 0 -- -- 34
2019-07-29 00:00:00 17.9 8 Noroeste 26 Oeste 0 -- -- 25
2019-07-28 23:00:00 17.6 6 Oeste 10 Oeste 0 -- -- 29
2019-07-28 22:00:00 21.7 8 Oeste 20 Oeste 0 -- -- 12
2019-07-28 21:00:00 25.8 17 Oeste 27 Oeste 0 -- -- 5
2019-07-28 20:00:00 27 18 Oeste 30 Oeste 0 -- -- 6
2019-07-28 19:00:00 27.3 19 Oeste 30 Oeste 0 -- -- 4
2019-07-28 18:00:00 27.2 15 Oeste 35 Oeste 0 -- -- 7
2019-07-28 17:00:00 27.9 8 Norte 27 Sudeste 0 -- -- 8
2019-07-28 16:00:00 26.4 9 Sudoeste 23 Oeste 0 -- -- 10
2019-07-28 15:00:00 24.9 9 Sur 21 Sudeste 0 -- -- 14
2019-07-28 14:00:00 24.8 5 Sudeste 16 Sudeste 0 -- -- 17
2019-07-28 13:00:00 22.5 9 Nordeste 24 Este 0 -- -- 24
2019-07-28 12:00:00 20 12 Nordeste 24 Este 0 -- -- 31
2019-07-28 11:00:00 18.4 17 Este 26 Este 0 -- -- 37
2019-07-28 10:00:00 15.9 18 Este 26 Este 0 -- -- 54
2019-07-28 09:00:00 13.2 16 Este 23 Este 0 -- -- 70
2019-07-28 08:00:00 10.9 14 Nordeste 17 Nordeste 0 -- -- 83
2019-07-28 07:00:00 8 9 Nordeste 13 Nordeste 0 -- -- 81
2019-07-28 06:00:00 9.3 5 Este 12 Nordeste 0 -- -- 76
2019-07-28 05:00:00 9.6 10 Nordeste 12 Nordeste 0 -- -- 71
2019-07-28 04:00:00 11.1 7 Este 14 Este 0 -- -- 68
2019-07-28 03:00:00 12.2 11 Este 15 Este 0 -- -- 65
2019-07-28 02:00:00 13.3 11 Este 22 Nordeste 0 -- -- 64
2019-07-28 01:00:00 14.5 16 Nordeste 24 Nordeste 0 -- -- 60
2019-07-28 00:00:00 16.3 16 Nordeste 32 Nordeste 0 -- -- 53
2019-07-27 23:00:00 19.2 12 Nordeste 21 Nordeste 0 -- -- 40
2019-07-26 12:00:00 -- -- -- -- -- -- -- -- --
2019-07-26 11:00:00 17.1 11 Oeste 24 Oeste 0 -- -- 40
2019-07-26 10:00:00 15.1 14 Oeste 31 Oeste 0 -- -- 50
2019-07-26 09:00:00 13.7 19 Oeste 29 Oeste 0 -- -- 59
2019-07-26 08:00:00 12.3 12 Sudoeste 18 Sudoeste 0 -- -- 76
2019-07-26 07:00:00 12.4 9 Oeste 27 Oeste 0 -- -- 71
2019-07-26 06:00:00 14.2 17 Oeste 22 Oeste 0 -- -- 55
2019-07-26 05:00:00 14.9 15 Oeste 24 Oeste 0 -- -- 61
2019-07-26 04:00:00 16 9 Noroeste 26 Oeste 0 -- -- 64
2019-07-26 03:00:00 17 16 Oeste 27 Noroeste 0 -- -- 62
2019-07-26 02:00:00 17.6 14 Noroeste 35 Oeste 0 -- -- 60
2019-07-26 01:00:00 18.1 18 Noroeste 33 Noroeste 0 -- -- 62
2019-07-26 00:00:00 18.7 23 Noroeste 32 Noroeste 0 -- -- 60